Time;durP1;ratioP1;P1;durP2;ratioP2;P2;SDS_P1;SDS_P2;PMS_P1;PMS_P2;Temp;Humidity;BMP_temperature;BMP_pressure;BME280_temperature;BME280_humidity;BME280_pressure;Samples;Min_cycle;Max_cycle;Signal;HPM_P1;HPM_P2
2021/01/02 00:00:56;;;;;;;30.00;22.02;;;4.50;95.90;;;;;;5125114;28;20043;-63
2021/01/02 00:03:27;;;;;;;32.88;23.30;;;4.40;96.00;;;;;;5125752;28;20040;-63
2021/01/02 00:06:09;;;;;;;30.83;22.05;;;4.40;96.10;;;;;;5125391;28;20115;-64
2021/01/02 00:08:41;;;;;;;31.65;22.65;;;4.40;96.20;;;;;;5125003;28;20112;-64
2021/01/02 00:11:16;;;;;;;32.90;22.35;;;4.30;96.20;;;;;;5124442;28;20035;-65
2021/01/02 00:14:08;;;;;;;32.08;23.15;;;4.10;96.70;;;;;;5105224;28;20060;-65
2021/01/02 00:16:52;;;;;;;33.15;23.23;;;4.20;96.80;;;;;;5097855;28;20049;-64
2021/01/02 00:20:00;;;;;;;29.80;21.17;;;4.20;96.50;;;;;;5089183;28;20044;-64
2021/01/02 00:22:33;;;;;;;33.08;22.33;;;4.10;96.80;;;;;;5075063;28;20052;-64
2021/01/02 00:25:09;;;;;;;33.65;24.08;;;4.20;97.20;;;;;;5108783;28;20051;-64
2021/01/02 00:27:41;;;;;;;33.22;22.67;;;4.20;97.00;;;;;;5108832;28;20040;-65
2021/01/02 00:30:09;;;;;;;30.42;21.75;;;4.30;96.70;;;;;;5109159;28;20086;-64
2021/01/02 00:33:12;;;;;;;29.40;22.00;;;4.30;96.50;;;;;;5108802;28;20085;-64
2021/01/02 00:35:41;;;;;;;29.65;21.60;;;4.40;96.30;;;;;;5108813;28;20096;-64
2021/01/02 00:38:08;;;;;;;32.63;23.33;;;4.40;96.20;;;;;;5087164;28;20041;-64
2021/01/02 00:40:38;;;;;;;33.17;21.70;;;4.40;96.20;;;;;;5104488;28;20048;-64
2021/01/02 00:43:07;;;;;;;28.05;21.92;;;4.30;96.40;;;;;;5099278;28;20071;-65
2021/01/02 00:45:33;;;;;;;30.98;21.48;;;4.40;96.40;;;;;;5089936;28;20070;-65
2021/01/02 00:48:02;;;;;;;30.77;22.73;;;4.40;96.30;;;;;;5108465;28;20070;-64
2021/01/02 00:50:28;;;;;;;28.98;22.15;;;4.40;96.30;;;;;;5108484;28;20064;-64
2021/01/02 00:53:21;;;;;;;32.70;23.42;;;4.30;96.50;;;;;;5108574;28;20072;-64
2021/01/02 00:55:57;;;;;;;31.20;22.80;;;4.30;96.80;;;;;;5108480;28;20040;-64
2021/01/02 00:58:46;;;;;;;32.15;23.00;;;4.20;97.00;;;;;;5108168;28;20047;-64
2021/01/02 01:01:31;;;;;;;31.93;21.90;;;4.30;96.80;;;;;;5106550;28;20048;-64
2021/01/02 01:04:08;;;;;;;30.92;22.20;;;4.30;96.90;;;;;;5108153;28;20487;-65
2021/01/02 01:06:38;;;;;;;32.70;21.35;;;4.30;96.80;;;;;;5108434;28;20044;-65
2021/01/02 01:09:05;;;;;;;;;;;4.30;96.60;;;;;;5094861;28;20579;-64
2021/01/02 01:11:36;;;;;;;28.67;20.75;;;4.30;96.70;;;;;;5108098;28;19924;-64
2021/01/02 01:14:03;;;;;;;30.83;21.60;;;4.30;96.80;;;;;;5094416;28;20050;-64
2021/01/02 01:16:38;;;;;;;28.30;20.73;;;4.20;96.90;;;;;;5107823;28;20036;-64
2021/01/02 01:19:04;;;;;;;28.42;20.70;;;4.30;97.00;;;;;;5107841;28;20086;-64
2021/01/02 01:21:35;;;;;;;28.67;19.60;;;4.30;96.80;;;;;;5107580;28;20530;-64
2021/01/02 01:24:25;;;;;;;28.77;21.05;;;4.20;97.00;;;;;;5108038;28;20048;-64
2021/01/02 01:27:15;;;;;;;31.53;22.33;;;4.20;97.20;;;;;;5094143;28;20048;-64
2021/01/02 01:29:46;;;;;;;27.17;21.08;;;4.20;97.10;;;;;;5106699;28;20054;-64
2021/01/02 01:32:16;;;;;;;28.15;20.55;;;4.20;97.20;;;;;;5107543;28;20046;-64
2021/01/02 01:34:46;;;;;;;29.27;20.10;;;4.20;97.10;;;;;;5107715;28;20055;-64
2021/01/02 01:37:15;;;;;;;28.90;20.52;;;4.20;97.20;;;;;;5107296;28;20059;-64
2021/01/02 01:39:50;;;;;;;30.92;21.23;;;4.20;97.30;;;;;;5107339;28;20111;-65
2021/01/02 01:42:17;;;;;;;28.63;21.48;;;4.30;97.00;;;;;;5107260;28;20066;-64
2021/01/02 01:45:04;;;;;;;28.67;20.95;;;4.30;97.10;;;;;;5107431;28;20048;-64
2021/01/02 01:47:40;;;;;;;28.60;20.55;;;4.30;97.00;;;;;;5089412;28;20055;-64
2021/01/02 01:50:27;;;;;;;30.40;20.95;;;4.30;97.00;;;;;;5107143;28;20052;-64
2021/01/02 01:53:16;;;;;;;34.40;19.92;;;4.30;97.00;;;;;;5106889;28;20191;-64
2021/01/02 01:55:59;;;;;;;28.83;20.42;;;4.30;97.00;;;;;;5107148;28;20043;-64
2021/01/02 01:59:11;;;;;;;30.08;20.23;;;4.30;96.60;;;;;;5107095;28;20044;-64
2021/01/02 02:01:38;;;;;;;30.98;21.60;;;4.30;96.60;;;;;;5083898;28;20055;-64
2021/01/02 02:04:10;;;;;;;30.13;20.55;;;4.30;96.80;;;;;;5106943;28;20090;-65
2021/01/02 02:06:38;;;;;;;26.88;21.05;;;4.30;96.90;;;;;;5107241;28;20058;-64
2021/01/02 02:09:05;;;;;;;30.98;21.05;;;4.30;97.10;;;;;;5106505;28;20044;-64
2021/01/02 02:11:36;;;;;;;29.88;21.90;;;4.40;97.00;;;;;;5106566;28;20056;-65
2021/01/02 02:14:15;;;;;;;28.50;21.73;;;4.40;96.70;;;;;;5107016;28;20075;-64
2021/01/02 02:17:02;;;;;;;26.90;20.38;;;4.40;96.90;;;;;;5089982;28;20037;-64
2021/01/02 02:19:35;;;;;;;27.88;20.30;;;4.30;97.00;;;;;;5101013;28;20750;-64
2021/01/02 02:22:05;;;;;;;29.98;18.83;;;4.40;97.00;;;;;;5106705;28;20073;-65
2021/01/02 02:24:37;;;;;;;27.25;19.33;;;4.40;96.90;;;;;;5107140;28;20119;-64
2021/01/02 02:27:03;;;;;;;26.50;20.23;;;4.30;97.00;;;;;;5106844;28;20071;-65
2021/01/02 02:29:37;;;;;;;28.98;20.45;;;4.30;97.10;;;;;;5106376;28;20040;-64
2021/01/02 02:32:08;;;;;;;26.63;20.10;;;4.40;96.70;;;;;;5106727;28;20044;-64
2021/01/02 02:34:36;;;;;;;31.92;21.30;;;4.40;96.80;;;;;;5106204;28;20043;-64
2021/01/02 02:37:02;;;;;;;26.60;19.35;;;4.30;96.80;;;;;;5106800;28;20055;-65
2021/01/02 02:39:28;;;;;;;26.83;19.98;;;4.30;97.00;;;;;;5106084;28;20065;-64
2021/01/02 02:42:00;;;;;;;26.92;20.05;;;4.30;97.20;;;;;;5106166;28;20040;-64
2021/01/02 02:44:32;;;;;;;33.63;21.55;;;4.30;97.10;;;;;;5089293;28;20045;-64
2021/01/02 02:47:00;;;;;;;29.05;20.80;;;4.30;97.20;;;;;;5086280;28;20071;-64
2021/01/02 02:49:31;;;;;;;26.98;19.75;;;4.30;97.40;;;;;;5085883;28;20040;-64
2021/01/02 02:52:26;;;;;;;28.88;21.40;;;4.40;97.00;;;;;;5097705;28;20403;-65
2021/01/02 02:54:52;;;;;;;28.00;20.02;;;4.50;96.90;;;;;;5106043;28;20048;-65
2021/01/02 02:57:20;;;;;;;30.77;22.80;;;4.50;96.70;;;;;;5106035;28;20050;-64
2021/01/02 02:59:45;;;;;;;30.00;21.98;;;4.40;97.20;;;;;;5105561;28;20075;-64
2021/01/02 03:02:13;;;;;;;29.20;21.55;;;4.30;97.50;;;;;;5105992;28;20427;-64
2021/01/02 03:04:40;;;;;;;32.28;22.33;;;4.30;97.60;;;;;;5105928;28;20047;-64
2021/01/02 03:07:06;;;;;;;33.72;22.55;;;4.30;97.70;;;;;;5105942;28;20047;-65
2021/01/02 03:09:33;;;;;;;30.23;22.17;;;4.30;97.70;;;;;;5105735;28;20059;-64
2021/01/02 03:11:59;;;;;;;36.10;22.90;;;4.30;97.80;;;;;;5105673;28;20088;-64
2021/01/02 03:14:26;;;;;;;29.98;21.48;;;4.40;97.60;;;;;;5087331;28;20052;-64
2021/01/02 03:17:01;;;;;;;31.02;21.65;;;4.40;97.60;;;;;;5105360;28;20065;-64
2021/01/02 03:19:28;;;;;;;32.63;23.02;;;4.40;97.40;;;;;;5105665;28;20112;-64
2021/01/02 03:21:54;;;;;;;30.85;21.92;;;4.40;97.30;;;;;;5105403;28;20048;-64
2021/01/02 03:24:20;;;;;;;32.13;20.67;;;4.50;97.00;;;;;;5105276;28;20469;-64
2021/01/02 03:26:46;;;;;;;32.50;20.73;;;4.60;97.10;;;;;;5105528;28;20104;-64
2021/01/02 03:29:12;;;;;;;30.85;21.27;;;4.60;96.90;;;;;;5097569;28;20596;-64
2021/01/02 03:31:38;;;;;;;31.30;21.92;;;4.60;96.90;;;;;;5099695;28;20051;-65
2021/01/02 03:34:04;;;;;;;31.75;23.92;;;4.60;96.90;;;;;;5106028;28;20086;-65
2021/01/02 03:36:30;;;;;;;34.47;23.08;;;4.60;96.80;;;;;;5105437;28;20036;-64
2021/01/02 03:38:58;;;;;;;36.53;23.98;;;4.40;97.30;;;;;;5105202;28;20072;-64
2021/01/02 03:41:25;;;;;;;33.80;22.08;;;4.40;97.40;;;;;;5104955;28;20044;-64
2021/01/02 03:43:51;;;;;;;38.83;24.70;;;4.50;97.20;;;;;;5105212;28;20052;-64
2021/01/02 03:46:18;;;;;;;36.97;23.63;;;4.40;97.50;;;;;;5105508;28;20048;-65
2021/01/02 03:48:44;;;;;;;37.83;23.17;;;4.40;97.60;;;;;;5105592;28;20044;-64
2021/01/02 03:51:09;;;;;;;36.05;24.20;;;4.40;97.60;;;;;;5104740;28;20056;-64
2021/01/02 03:53:35;;;;;;;31.38;22.45;;;4.40;97.90;;;;;;5105159;28;20388;-65
2021/01/02 03:56:01;;;;;;;38.03;24.63;;;4.40;97.90;;;;;;5091164;28;20098;-64
2021/01/02 03:58:27;;;;;;;34.80;23.92;;;4.40;97.80;;;;;;5104059;28;20036;-64
2021/01/02 04:00:53;;;;;;;36.80;22.80;;;4.40;97.80;;;;;;5091787;28;20064;-64
2021/01/02 04:03:19;;;;;;;35.30;23.20;;;4.50;98.00;;;;;;5105150;28;20048;-64
2021/01/02 04:05:46;;;;;;;35.17;22.75;;;4.40;97.70;;;;;;5104932;28;20098;-64
2021/01/02 04:08:13;;;;;;;35.63;23.25;;;4.40;97.70;;;;;;5105528;28;20055;-64
2021/01/02 04:10:40;;;;;;;33.00;21.70;;;4.40;97.90;;;;;;5104651;28;20054;-64
2021/01/02 04:13:06;;;;;;;37.55;23.80;;;4.60;97.60;;;;;;5104783;28;20068;-64
2021/01/02 04:15:32;;;;;;;34.75;22.33;;;4.40;97.70;;;;;;5105099;28;20051;-64
2021/01/02 04:17:58;;;;;;;34.03;22.52;;;4.50;97.50;;;;;;5105244;28;20050;-64
2021/01/02 04:20:26;;;;;;;35.53;23.08;;;4.50;97.60;;;;;;5073594;28;20072;-64
2021/01/02 04:22:52;;;;;;;34.25;22.40;;;4.40;97.70;;;;;;5085118;28;20079;-64
2021/01/02 04:25:18;;;;;;;40.67;22.95;;;4.50;97.60;;;;;;5084988;28;20053;-65
2021/01/02 04:27:43;;;;;;;36.42;23.42;;;4.50;97.70;;;;;;5084810;28;20496;-64
2021/01/02 04:30:09;;;;;;;35.00;23.35;;;4.50;97.70;;;;;;5084707;28;20493;-64
2021/01/02 04:32:35;;;;;;;35.45;22.88;;;4.50;97.50;;;;;;5101857;28;20045;-64
2021/01/02 04:35:01;;;;;;;37.42;25.25;;;4.40;97.60;;;;;;5105022;28;20047;-64
2021/01/02 04:37:30;;;;;;;40.63;24.50;;;4.30;98.00;;;;;;5104976;28;20040;-64
2021/01/02 04:39:56;;;;;;;42.78;25.75;;;4.40;98.30;;;;;;5104918;28;20044;-64
2021/01/02 04:42:23;;;;;;;38.17;24.95;;;4.50;98.00;;;;;;5104592;28;20044;-64
2021/01/02 04:44:53;;;;;;;40.28;22.83;;;4.40;98.00;;;;;;5095473;28;20055;-64
2021/01/02 04:47:19;;;;;;;34.60;22.27;;;4.40;98.10;;;;;;5104921;28;20040;-64
2021/01/02 04:49:46;;;;;;;35.45;21.25;;;4.50;98.10;;;;;;5104879;28;20045;-64
2021/01/02 04:52:19;;;;;;;37.63;23.73;;;4.60;97.50;;;;;;5104532;28;20074;-64
2021/01/02 04:54:50;;;;;;;33.42;20.25;;;4.40;97.90;;;;;;5104673;28;20059;-64
2021/01/02 04:57:19;;;;;;;33.72;21.95;;;4.50;97.80;;;;;;5104667;28;20048;-64
2021/01/02 04:59:51;;;;;;;33.30;20.48;;;4.50;97.70;;;;;;5100783;28;20055;-64
2021/01/02 05:02:21;;;;;;;31.25;19.77;;;4.60;97.50;;;;;;5104496;28;20039;-64
2021/01/02 05:04:50;;;;;;;33.28;21.52;;;4.60;97.40;;;;;;5108023;28;20040;-64
2021/01/02 05:07:23;;;;;;;29.00;20.08;;;4.50;97.50;;;;;;5108137;28;20100;-64
2021/01/02 05:09:49;;;;;;;31.83;18.85;;;4.40;97.70;;;;;;5108383;28;20056;-64
2021/01/02 05:12:42;;;;;;;31.83;19.33;;;4.40;97.60;;;;;;5117428;28;20131;-64
2021/01/02 05:15:10;;;;;;;33.63;20.48;;;4.40;97.70;;;;;;5123761;28;20089;-64
2021/01/02 05:17:38;;;;;;;31.27;20.33;;;4.50;97.40;;;;;;5128355;28;20063;-65
2021/01/02 05:20:14;;;;;;;34.15;20.33;;;4.50;97.70;;;;;;5128259;28;20111;-65
2021/01/02 05:22:42;;;;;;;34.05;20.17;;;4.40;97.90;;;;;;5128129;28;20040;-65
2021/01/02 05:25:08;;;;;;;38.72;18.75;;;4.40;97.50;;;;;;5128018;28;20043;-64
2021/01/02 05:27:35;;;;;;;36.67;21.17;;;4.50;97.40;;;;;;5129206;28;20047;-64
2021/01/02 05:30:19;;;;;;;38.88;22.33;;;4.50;97.30;;;;;;5126379;28;20043;-64
2021/01/02 05:33:11;;;;;;;40.38;21.75;;;4.40;97.60;;;;;;5118262;28;20044;-64
2021/01/02 05:35:46;;;;;;;38.97;20.50;;;4.50;97.40;;;;;;5115266;28;20096;-65
2021/01/02 05:38:19;;;;;;;36.70;20.38;;;4.50;97.40;;;;;;5127309;28;20048;-65
2021/01/02 05:40:53;;;;;;;39.15;21.45;;;4.50;97.40;;;;;;5127823;28;20043;-65
2021/01/02 05:43:23;;;;;;;41.15;21.83;;;4.50;97.30;;;;;;5127613;28;20040;-64
2021/01/02 05:45:50;;;;;;;45.45;22.95;;;4.60;97.30;;;;;;5127858;28;20044;-65
2021/01/02 05:48:22;;;;;;;42.58;22.55;;;4.50;97.40;;;;;;5127334;28;20040;-64
2021/01/02 05:51:01;;;;;;;44.30;22.70;;;4.40;97.60;;;;;;5127842;28;20055;-65
2021/01/02 05:53:32;;;;;;;43.92;22.77;;;4.40;97.80;;;;;;5127678;28;20073;-64
2021/01/02 05:56:10;;;;;;;40.60;23.15;;;4.50;97.80;;;;;;5127407;28;20058;-64
2021/01/02 05:58:39;;;;;;;38.92;22.63;;;4.40;97.80;;;;;;5123342;28;20044;-65
2021/01/02 06:01:14;;;;;;;40.05;22.48;;;4.40;97.90;;;;;;5125540;28;20047;-64
2021/01/02 06:03:42;;;;;;;39.08;22.13;;;4.40;98.00;;;;;;5116258;28;20054;-64
2021/01/02 06:06:13;;;;;;;42.75;23.70;;;4.50;97.90;;;;;;5127112;28;20051;-65
2021/01/02 06:08:42;;;;;;;38.40;21.50;;;4.40;98.00;;;;;;5127229;28;20097;-65
2021/01/02 06:11:20;;;;;;;41.63;22.92;;;4.50;97.90;;;;;;5126475;28;20039;-65
2021/01/02 06:13:49;;;;;;;40.33;21.80;;;4.50;97.60;;;;;;5115642;28;20044;-65
2021/01/02 06:16:15;;;;;;;37.58;21.67;;;4.50;97.80;;;;;;5125450;27;20078;-65
2021/01/02 06:18:43;;;;;;;38.65;22.70;;;4.50;97.40;;;;;;5127026;28;20055;-64
2021/01/02 06:21:14;;;;;;;43.15;22.98;;;4.50;97.50;;;;;;5126883;28;20566;-64
2021/01/02 06:23:42;;;;;;;46.03;23.05;;;4.40;98.00;;;;;;5126943;28;20127;-64
2021/01/02 06:26:10;;;;;;;39.85;23.27;;;4.40;98.10;;;;;;5126895;28;20051;-65
2021/01/02 06:28:37;;;;;;;48.63;25.33;;;4.30;98.40;;;;;;5127736;28;20042;-64
2021/01/02 06:31:24;;;;;;;47.03;23.10;;;4.30;98.60;;;;;;5126905;28;20575;-64
2021/01/02 06:33:50;;;;;;;46.42;24.33;;;4.30;98.60;;;;;;5126736;28;20043;-64
2021/01/02 06:36:30;;;;;;;41.28;23.30;;;4.30;98.60;;;;;;5113677;28;20138;-64
2021/01/02 06:39:17;;;;;;;45.40;22.23;;;4.30;98.20;;;;;;5126959;28;20063;-64
2021/01/02 06:41:43;;;;;;;42.53;22.70;;;4.30;98.40;;;;;;5126507;28;20051;-64
2021/01/02 06:44:09;;;;;;;40.35;22.15;;;4.30;98.10;;;;;;5126845;28;20047;-64
2021/01/02 06:46:35;;;;;;;39.15;22.45;;;4.30;98.00;;;;;;5126920;28;20558;-64
2021/01/02 06:49:31;;;;;;;42.35;22.75;;;4.40;98.10;;;;;;5126607;28;20046;-65
2021/01/02 06:51:57;;;;;;;41.63;20.83;;;4.30;98.20;;;;;;5125824;28;20062;-64
2021/01/02 06:54:23;;;;;;;43.92;21.85;;;4.40;97.80;;;;;;5126371;28;20039;-64
2021/01/02 06:57:01;;;;;;;47.80;23.52;;;4.40;97.80;;;;;;5126423;28;20112;-64
2021/01/02 06:59:27;;;;;;;48.50;23.48;;;4.30;98.20;;;;;;5125628;28;20086;-65
2021/01/02 07:01:53;;;;;;;52.53;23.67;;;4.30;98.50;;;;;;5125875;28;20104;-65
2021/01/02 07:04:37;;;;;;;46.88;23.48;;;4.20;98.70;;;;;;5126317;28;20051;-64
2021/01/02 07:07:05;;;;;;;48.00;21.77;;;4.30;98.60;;;;;;5126562;28;20050;-64
2021/01/02 07:09:30;;;;;;;43.60;23.00;;;4.40;98.20;;;;;;5126388;28;20046;-64
2021/01/02 07:12:08;;;;;;;47.78;23.65;;;4.40;98.20;;;;;;5120739;28;20079;-64
2021/01/02 07:14:35;;;;;;;48.35;21.88;;;4.30;98.30;;;;;;5105819;28;20051;-64
2021/01/02 07:17:10;;;;;;;49.72;22.08;;;4.30;98.60;;;;;;5105736;28;20044;-65
2021/01/02 07:19:47;;;;;;;46.28;22.33;;;4.30;98.50;;;;;;5105844;28;20044;-64
2021/01/02 07:22:19;;;;;;;48.20;21.88;;;4.30;98.40;;;;;;5105362;28;20056;-64
2021/01/02 07:24:46;;;;;;;52.28;24.27;;;4.20;98.70;;;;;;5105340;28;20055;-64
2021/01/02 07:27:13;;;;;;;51.00;22.52;;;4.20;99.20;;;;;;5105239;28;20059;-64
2021/01/02 07:29:41;;;;;;;49.70;23.65;;;4.30;98.80;;;;;;5105631;28;20051;-64
2021/01/02 07:32:13;;;;;;;41.10;20.05;;;4.30;98.40;;;;;;5105703;28;20512;-65
2021/01/02 07:34:44;;;;;;;39.15;19.80;;;4.50;98.20;;;;;;5105517;28;20065;-64
2021/01/02 07:37:13;;;;;;;42.63;21.48;;;4.50;98.00;;;;;;5105594;28;20071;-64
2021/01/02 07:39:39;;;;;;;50.88;21.13;;;4.50;97.60;;;;;;5105492;28;20075;-64
2021/01/02 07:42:08;;;;;;;47.78;22.85;;;4.40;98.00;;;;;;5105362;28;20066;-64
2021/01/02 07:44:35;;;;;;;41.50;21.45;;;4.30;98.10;;;;;;5105124;28;20071;-65
2021/01/02 07:47:02;;;;;;;44.28;21.80;;;4.40;97.90;;;;;;5105297;28;20044;-65
2021/01/02 07:49:29;;;;;;;45.38;21.33;;;4.40;97.80;;;;;;5105419;28;20058;-64
2021/01/02 07:51:54;;;;;;;48.20;21.02;;;4.30;98.20;;;;;;5105252;28;20060;-64
2021/01/02 07:54:33;;;;;;;48.15;21.73;;;4.30;98.60;;;;;;5104904;28;20066;-64
2021/01/02 07:57:00;;;;;;;45.88;23.17;;;4.30;98.60;;;;;;5105035;28;20039;-64
2021/01/02 07:59:29;;;;;;;52.25;23.75;;;4.30;98.30;;;;;;5104979;28;20056;-64
2021/01/02 08:01:57;;;;;;;52.17;22.42;;;4.30;98.30;;;;;;5105318;28;20067;-64
2021/01/02 08:04:24;;;;;;;56.80;24.85;;;4.30;98.50;;;;;;5104933;28;20063;-64
2021/01/02 08:06:52;;;;;;;63.97;25.10;;;4.40;98.30;;;;;;5091536;28;20462;-64
2021/01/02 08:09:19;;;;;;;70.28;26.30;;;4.30;98.50;;;;;;5105236;28;20115;-64
2021/01/02 08:11:52;;;;;;;60.47;24.60;;;4.40;98.30;;;;;;5105374;28;20208;-64
2021/01/02 08:14:19;;;;;;;66.78;24.88;;;4.40;98.50;;;;;;5104684;28;20054;-65
2021/01/02 08:17:00;;;;;;;65.90;26.13;;;4.30;98.60;;;;;;5091306;28;20051;-65
2021/01/02 08:19:31;;;;;;;64.93;26.58;;;4.30;98.50;;;;;;5105189;28;20048;-64
2021/01/02 08:21:58;;;;;;;57.65;24.15;;;4.30;98.50;;;;;;5104788;28;20067;-64
2021/01/02 08:24:24;;;;;;;58.42;25.17;;;4.40;98.40;;;;;;5104998;28;20103;-65
2021/01/02 08:26:50;;;;;;;58.17;25.13;;;4.40;98.30;;;;;;5105467;28;20051;-65
2021/01/02 08:29:16;;;;;;;59.88;25.13;;;4.50;98.10;;;;;;5105186;28;20047;-64
2021/01/02 08:31:54;;;;;;;55.92;23.85;;;4.40;98.30;;;;;;5100897;28;20044;-64
2021/01/02 08:34:25;;;;;;;62.53;24.73;;;4.40;98.50;;;;;;5096682;28;20055;-64
2021/01/02 08:36:56;;;;;;;68.68;26.65;;;4.40;98.30;;;;;;5099189;28;20044;-64
2021/01/02 08:39:22;;;;;;;62.22;24.08;;;4.40;98.40;;;;;;5100486;28;20054;-64
2021/01/02 08:41:56;;;;;;;62.85;24.55;;;4.40;98.50;;;;;;5108430;28;20039;-64
2021/01/02 08:44:35;;;;;;;61.03;24.55;;;4.40;98.70;;;;;;5093663;28;20044;-64
2021/01/02 08:47:04;;;;;;;66.13;26.42;;;4.40;98.50;;;;;;5104351;28;20069;-62
2021/01/02 08:49:42;;;;;;;64.10;24.30;;;4.30;98.50;;;;;;5107072;28;20036;-63
2021/01/02 08:52:15;;;;;;;58.17;24.98;;;4.30;98.60;;;;;;5094025;28;20323;-67
2021/01/02 08:54:41;;;;;;;73.00;26.17;;;4.40;98.60;;;;;;5089506;28;20100;-67
2021/01/02 08:57:27;;;;;;;67.72;24.63;;;4.50;98.30;;;;;;5095894;28;20072;-69
2021/01/02 09:00:10;;;;;;;57.72;23.10;;;4.50;98.20;;;;;;5102228;28;20104;-68
2021/01/02 09:02:37;;;;;;;49.30;22.88;;;4.50;98.00;;;;;;5103992;28;20044;-69
2021/01/02 09:05:12;;;;;;;45.65;21.23;;;4.50;97.70;;;;;;5107196;28;20036;-69
2021/01/02 09:07:39;;;;;;;43.08;19.77;;;4.50;97.60;;;;;;5106454;28;20052;-68
2021/01/02 09:10:15;;;;;;;49.13;21.83;;;4.60;97.20;;;;;;5106535;28;20105;-68
2021/01/02 09:13:01;;;;;;;48.42;21.63;;;4.50;97.50;;;;;;5106209;28;20068;-68
2021/01/02 09:15:39;;;;;;;49.90;22.42;;;4.40;97.80;;;;;;5096699;28;20048;-68
2021/01/02 09:18:06;;;;;;;43.88;20.75;;;4.40;98.30;;;;;;5098329;28;20041;-69
2021/01/02 09:20:32;;;;;;;45.65;22.45;;;4.50;98.30;;;;;;5086245;28;20063;-69
2021/01/02 09:22:57;;;;;;;53.05;22.02;;;4.40;98.00;;;;;;5086776;28;20097;-68
2021/01/02 09:25:28;;;;;;;51.03;22.67;;;4.50;98.10;;;;;;5088544;28;20696;-69
2021/01/02 09:27:54;;;;;;;52.58;24.00;;;4.50;98.10;;;;;;5101004;28;20059;-69
2021/01/02 09:30:20;;;;;;;44.78;21.50;;;4.50;98.10;;;;;;5106299;28;20081;-68
2021/01/02 09:32:46;;;;;;;42.80;22.00;;;4.70;97.40;;;;;;5106086;28;20044;-68
2021/01/02 09:35:12;;;;;;;37.55;20.60;;;4.80;97.20;;;;;;5106751;28;20076;-69
2021/01/02 09:37:38;;;;;;;41.50;20.27;;;4.80;96.90;;;;;;5087241;28;20044;-70
2021/01/02 09:40:19;;;;;;;44.13;23.17;;;4.90;97.00;;;;;;5085962;28;20066;-70
2021/01/02 09:42:45;;;;;;;38.75;20.33;;;5.00;96.60;;;;;;5091587;28;20048;-71
2021/01/02 09:45:11;;;;;;;41.63;22.95;;;5.00;96.50;;;;;;5083239;28;20522;-71
2021/01/02 09:47:37;;;;;;;45.92;22.33;;;4.90;96.70;;;;;;5104098;28;20052;-69
2021/01/02 09:50:05;;;;;;;42.17;20.67;;;4.90;96.60;;;;;;5105305;28;20047;-71
2021/01/02 09:52:31;;;;;;;41.90;20.30;;;4.90;96.70;;;;;;5100904;28;20538;-69
2021/01/02 09:54:56;;;;;;;47.08;21.58;;;5.00;96.80;;;;;;5085040;28;20040;-69
2021/01/02 09:57:22;;;;;;;47.63;23.63;;;5.00;96.80;;;;;;5086479;28;20048;-69
2021/01/02 09:59:48;;;;;;;48.97;22.40;;;5.00;97.00;;;;;;5093942;28;20054;-69
2021/01/02 10:02:14;;;;;;;48.97;22.95;;;5.10;96.90;;;;;;5099365;28;20469;-69
2021/01/02 10:04:44;;;;;;;49.80;22.95;;;5.10;96.60;;;;;;5105826;28;20054;-69
2021/01/02 10:07:10;;;;;;;;;;;5.10;96.50;;;;;;5100859;28;20135;-69
2021/01/02 10:09:41;;;;;;;47.00;22.35;;;5.10;96.30;;;;;;5106396;28;20674;-69
2021/01/02 10:12:08;;;;;;;55.85;23.95;;;5.10;96.20;;;;;;5104785;28;20048;-69
2021/01/02 10:14:35;;;;;;;44.63;23.50;;;5.20;96.30;;;;;;5106591;28;20044;-69
2021/01/02 10:17:01;;;;;;;53.40;25.05;;;5.10;96.50;;;;;;5103977;28;20097;-69
2021/01/02 10:19:27;;;;;;;46.35;22.83;;;5.10;96.40;;;;;;5096499;28;20056;-71
2021/01/02 10:21:53;;;;;;;50.58;22.33;;;5.10;96.70;;;;;;5089575;28;20046;-77
2021/01/02 10:24:19;;;;;;;58.35;25.33;;;5.10;96.50;;;;;;5104684;28;20055;-72
2021/01/02 10:26:45;;;;;;;52.88;24.02;;;5.00;96.80;;;;;;5102783;28;20414;-70
2021/01/02 10:29:11;;;;;;;54.40;24.33;;;5.00;96.70;;;;;;5104376;28;20399;-71
2021/01/02 10:31:38;;;;;;;49.60;23.35;;;5.20;97.00;;;;;;5103178;28;20036;-70
2021/01/02 10:34:03;;;;;;;46.22;22.90;;;5.20;97.10;;;;;;5103794;28;20036;-67
2021/01/02 10:36:29;;;;;;;55.67;26.10;;;5.20;96.50;;;;;;5102603;28;20044;-65
2021/01/02 10:38:55;;;;;;;50.55;23.60;;;5.10;96.80;;;;;;5083094;28;20073;-67
2021/01/02 10:41:21;;;;;;;53.97;25.23;;;5.30;96.20;;;;;;5083291;28;20174;-70
2021/01/02 10:43:48;;;;;;;53.38;25.55;;;5.40;95.80;;;;;;5086656;28;20051;-68
2021/01/02 10:46:15;;;;;;;48.88;24.13;;;5.30;96.20;;;;;;5080253;28;20051;-65
2021/01/02 10:48:41;;;;;;;49.70;24.35;;;5.40;95.70;;;;;;5083582;28;20043;-72
2021/01/02 10:51:13;;;;;;;48.35;23.50;;;5.30;95.80;;;;;;5087228;28;20143;-70
2021/01/02 10:53:39;;;;;;;45.95;22.70;;;5.30;96.00;;;;;;5092304;28;20043;-69
2021/01/02 10:56:10;;;;;;;46.67;22.90;;;5.50;95.50;;;;;;5079110;28;20554;-68
2021/01/02 10:58:36;;;;;;;45.38;22.83;;;5.40;95.70;;;;;;5100333;28;20043;-68
2021/01/02 11:01:03;;;;;;;42.17;23.20;;;5.20;95.90;;;;;;5072702;28;20094;-67
2021/01/02 11:03:30;;;;;;;41.90;21.65;;;5.10;96.00;;;;;;5098044;28;20618;-67
2021/01/02 11:05:57;;;;;;;41.75;22.55;;;5.10;96.40;;;;;;5074500;28;20112;-68
2021/01/02 11:08:23;;;;;;;41.10;21.58;;;5.10;96.30;;;;;;5077010;28;20040;-69
2021/01/02 11:10:49;;;;;;;39.80;22.25;;;5.20;96.00;;;;;;5080122;28;20048;-69
2021/01/02 11:13:15;;;;;;;41.60;21.92;;;5.20;96.00;;;;;;5109486;28;20094;-72
2021/01/02 11:15:41;;;;;;;40.60;21.67;;;5.20;95.70;;;;;;5105400;27;20039;-70
2021/01/02 11:18:07;;;;;;;44.95;23.00;;;5.10;96.00;;;;;;5118619;28;20084;-74
2021/01/02 11:20:33;;;;;;;42.83;20.70;;;5.10;96.30;;;;;;5102049;28;20059;-75
2021/01/02 11:22:59;;;;;;;39.25;20.73;;;5.20;96.70;;;;;;5114327;28;20044;-74
2021/01/02 11:25:24;;;;;;;39.42;20.08;;;5.20;96.30;;;;;;5096585;28;20054;-81
2021/01/02 11:27:50;;;;;;;39.28;22.20;;;5.10;96.00;;;;;;5117821;28;20103;-75
2021/01/02 11:30:16;;;;;;;44.20;23.27;;;5.20;96.00;;;;;;5080988;28;20043;-77
2021/01/02 11:32:42;;;;;;;36.10;20.50;;;5.00;96.20;;;;;;5099772;28;20315;-77
2021/01/02 11:35:08;;;;;;;36.75;20.63;;;5.10;96.00;;;;;;5094500;28;20040;-77
2021/01/02 11:37:34;;;;;;;40.50;20.42;;;5.00;96.30;;;;;;5117543;28;20105;-82
2021/01/02 11:40:00;;;;;;;41.70;22.77;;;5.00;96.00;;;;;;5095430;28;20127;-73
2021/01/02 11:42:25;;;;;;;43.38;23.25;;;5.00;96.20;;;;;;5117245;28;20574;-73
2021/01/02 11:44:51;;;;;;;39.88;21.17;;;5.00;96.40;;;;;;5095571;28;20097;-72
2021/01/02 11:47:17;;;;;;;36.90;20.33;;;5.00;96.20;;;;;;5117266;28;20066;-68
2021/01/02 11:49:43;;;;;;;42.50;22.67;;;5.00;96.10;;;;;;5104890;28;20063;-73
2021/01/02 11:52:08;;;;;;;38.92;21.80;;;5.10;96.20;;;;;;5112634;28;20470;-66
2021/01/02 11:54:35;;;;;;;42.95;22.98;;;5.00;96.30;;;;;;5108873;28;20051;-70
2021/01/02 11:57:05;;;;;;;48.25;23.48;;;5.00;96.40;;;;;;5109150;28;20481;-63
2021/01/02 11:59:31;;;;;;;42.63;21.70;;;5.10;96.40;;;;;;5106569;28;20041;-63
2021/01/02 12:02:00;;;;;;;38.80;21.58;;;5.20;96.20;;;;;;5112666;28;20063;-65
2021/01/02 12:04:28;;;;;;;40.17;21.90;;;5.10;96.10;;;;;;5103719;28;20553;-70
2021/01/02 12:06:55;;;;;;;47.58;23.70;;;5.10;96.40;;;;;;5104011;28;20047;-71
2021/01/02 12:09:23;;;;;;;49.22;24.48;;;5.00;96.60;;;;;;5117571;28;20043;-68
2021/01/02 12:11:50;;;;;;;39.75;22.25;;;5.00;96.50;;;;;;5100576;28;20055;-67
2021/01/02 12:14:21;;;;;;;44.45;25.10;;;5.00;96.50;;;;;;5124590;28;20065;-66
2021/01/02 12:16:50;;;;;;;42.55;22.98;;;5.00;96.60;;;;;;5102990;28;20071;-64
2021/01/02 12:19:25;;;;;;;41.78;22.77;;;5.00;96.50;;;;;;5123706;28;20074;-65
2021/01/02 12:21:56;;;;;;;48.63;25.48;;;5.00;96.70;;;;;;5087482;28;20048;-74
2021/01/02 12:24:23;;;;;;;45.58;23.42;;;5.00;96.70;;;;;;5090282;28;20043;-77
2021/01/02 12:26:51;;;;;;;45.45;24.80;;;5.10;96.50;;;;;;5110550;27;20086;-80
2021/01/02 12:29:19;;;;;;;45.42;22.73;;;5.10;96.30;;;;;;5115583;28;20047;-83
2021/01/02 12:31:50;;;;;;;41.80;23.27;;;5.10;96.10;;;;;;5109484;28;20059;-79
2021/01/02 12:34:18;;;;;;;47.20;24.90;;;5.20;96.20;;;;;;5123244;28;20032;-80
2021/01/02 12:36:45;;;;;;;49.05;26.33;;;5.10;96.20;;;;;;5112934;28;20063;-81
2021/01/02 12:39:14;;;;;;;48.97;25.45;;;5.00;96.40;;;;;;5102763;28;20043;-81
2021/01/02 12:41:40;;;;;;;46.90;25.05;;;5.00;96.50;;;;;;5111130;28;20044;-81
2021/01/02 12:44:07;;;;;;;49.15;25.67;;;4.90;96.70;;;;;;5113655;28;20055;-78
2021/01/02 12:46:45;;;;;;;50.15;26.02;;;5.00;96.80;;;;;;5104991;28;20130;-82
2021/01/02 12:49:14;;;;;;;46.28;25.42;;;5.00;96.60;;;;;;5101122;28;20036;-71
2021/01/02 12:51:40;;;;;;;56.38;28.40;;;5.00;96.50;;;;;;5103473;28;20077;-67
2021/01/02 12:54:06;;;;;;;54.97;29.17;;;4.90;97.10;;;;;;5120908;28;20055;-67